createdAt,value
2023-03-05T00:02:44.231Z,25.27
2023-03-05T00:07:49.285Z,27.88
2023-03-05T00:12:52.255Z,26.02
2023-03-05T00:17:55.249Z,27.65
2023-03-05T00:22:58.188Z,25.70
2023-03-05T00:28:01.159Z,30.63
2023-03-05T00:33:04.479Z,27.42
2023-03-05T00:38:07.610Z,31.85
2023-03-05T00:43:10.925Z,28.50
2023-03-05T00:48:13.896Z,28.55
2023-03-05T00:53:17.030Z,29.90
2023-03-05T00:58:20.129Z,31.88
2023-03-05T01:03:23.073Z,31.65
2023-03-05T01:08:26.568Z,32.08
2023-03-05T01:13:30.347Z,32.78
2023-03-05T01:18:33.690Z,35.67
2023-03-05T01:23:37.744Z,31.15
2023-03-05T01:28:41.064Z,28.00
2023-03-05T01:33:44.780Z,37.95
2023-03-05T01:38:48.382Z,31.58
2023-03-05T01:43:53.197Z,32.10
2023-03-05T01:49:07.018Z,35.35
2023-03-05T01:54:12.067Z,30.63
2023-03-05T01:59:15.807Z,32.55
2023-03-05T02:04:20.412Z,33.55
2023-03-05T02:09:24.358Z,37.75
2023-03-05T02:14:27.539Z,38.20
2023-03-05T02:19:30.579Z,39.70
2023-03-05T02:24:37.614Z,35.00
2023-03-05T02:34:45.576Z,34.08
2023-03-05T02:39:48.657Z,37.10
2023-03-05T02:44:51.676Z,32.72
2023-03-05T02:49:55.588Z,30.15
2023-03-05T02:55:00.320Z,40.45
2023-03-05T03:00:07.245Z,33.15
2023-03-05T03:05:10.654Z,37.83
2023-03-05T03:10:13.673Z,39.35
2023-03-05T03:15:18.318Z,34.72
2023-03-05T03:20:21.738Z,38.30
2023-03-05T03:25:24.774Z,35.22
2023-03-05T03:30:30.929Z,31.50
2023-03-05T03:35:33.983Z,37.47
2023-03-05T03:40:37.739Z,29.17
2023-03-05T03:45:42.805Z,33.08
2023-03-05T03:50:45.825Z,40.45
2023-03-05T03:55:49.018Z,33.88
2023-03-05T04:00:51.956Z,36.40
2023-03-05T04:05:54.930Z,30.85
2023-03-05T04:10:57.814Z,26.80
2023-03-05T04:16:00.835Z,27.77
2023-03-05T04:21:04.167Z,26.40
2023-03-05T04:26:07.253Z,30.02
2023-03-05T04:31:10.343Z,28.00
2023-03-05T04:36:13.453Z,29.95
2023-03-05T04:41:16.437Z,30.02
2023-03-05T04:46:19.399Z,36.55
2023-03-05T04:51:22.276Z,28.17
2023-03-05T04:56:25.256Z,29.05
2023-03-05T05:01:28.370Z,29.92
2023-03-05T05:06:31.478Z,24.45
2023-03-05T05:11:34.469Z,24.45
2023-03-05T05:16:37.473Z,23.98
2023-03-05T05:21:40.501Z,24.73
2023-03-05T05:26:43.521Z,21.50
2023-03-05T05:31:46.723Z,22.05
2023-03-05T05:36:49.650Z,19.60
2023-03-05T05:41:53.424Z,20.02
2023-03-05T05:46:56.376Z,18.10
2023-03-05T05:51:59.754Z,16.85
2023-03-05T05:57:02.872Z,18.75
2023-03-05T06:02:08.158Z,18.45
2023-03-05T06:07:11.214Z,14.60
2023-03-05T06:12:14.278Z,18.15
2023-03-05T06:17:28.668Z,17.65
2023-03-05T06:22:31.710Z,15.13
2023-03-05T06:27:35.768Z,17.33
2023-03-05T06:32:38.848Z,10.00
2023-03-05T06:37:41.832Z,11.57
2023-03-05T06:42:44.889Z,10.55
2023-03-05T06:47:47.848Z,12.95
2023-03-05T06:52:51.373Z,16.40
2023-03-05T06:57:54.401Z,11.68
2023-03-05T07:02:57.379Z,14.32
2023-03-05T07:08:00.342Z,17.60
2023-03-05T07:13:03.316Z,15.73
2023-03-05T07:18:06.565Z,18.50
2023-03-05T07:23:09.549Z,16.48
2023-03-05T07:28:12.525Z,14.70
2023-03-05T07:33:15.506Z,16.52
2023-03-05T07:38:18.432Z,16.73
2023-03-05T07:43:21.492Z,18.27
2023-03-05T07:48:26.155Z,12.15
2023-03-05T07:53:29.168Z,20.38
2023-03-05T07:58:32.164Z,17.42
2023-03-05T08:03:35.120Z,21.25
2023-03-05T08:08:39.704Z,15.38
2023-03-05T08:13:44.548Z,18.98
2023-03-05T08:18:48.149Z,19.23
2023-03-05T08:23:51.091Z,28.00
2023-03-05T08:28:54.455Z,20.67
2023-03-05T08:34:00.174Z,20.90
2023-03-05T08:39:03.865Z,19.48
2023-03-05T08:44:06.930Z,22.27
2023-03-05T08:49:11.081Z,25.50
2023-03-05T08:54:14.167Z,27.02
2023-03-05T08:59:17.190Z,19.13
2023-03-05T09:04:20.179Z,21.35
2023-03-05T09:09:23.475Z,20.40
2023-03-05T09:14:28.670Z,22.25
2023-03-05T09:19:31.708Z,20.95
2023-03-05T09:24:34.759Z,19.05
2023-03-05T09:29:38.141Z,21.67
2023-03-05T09:34:41.130Z,15.65
2023-03-05T09:39:44.159Z,15.85
2023-03-05T09:45:02.709Z,18.55
2023-03-05T09:50:37.512Z,23.33
2023-03-05T09:55:45.101Z,14.20
2023-03-05T10:00:53.267Z,17.67
2023-03-05T10:06:02.487Z,17.05
2023-03-05T10:11:17.392Z,18.58
2023-03-05T10:16:29.373Z,25.05
2023-03-05T10:21:43.886Z,18.60
2023-03-05T10:27:08.477Z,18.88
2023-03-05T10:32:26.476Z,17.92
2023-03-05T10:37:41.393Z,20.77
2023-03-05T10:43:01.671Z,19.40
2023-03-05T10:48:27.388Z,20.05
2023-03-05T10:53:38.703Z,19.90
2023-03-05T10:58:41.667Z,22.25
2023-03-05T11:03:58.363Z,19.77
2023-03-05T11:09:29.835Z,25.98
2023-03-05T11:14:34.439Z,20.40
2023-03-05T11:19:38.850Z,19.40
2023-03-05T11:24:42.492Z,18.45
2023-03-05T11:29:49.694Z,19.38
2023-03-05T11:34:54.319Z,23.10
2023-03-05T11:40:19.370Z,21.52
2023-03-05T11:45:24.060Z,16.52
2023-03-05T11:50:31.618Z,27.45
2023-03-05T11:55:34.481Z,21.52
2023-03-05T12:00:41.785Z,20.58
2023-03-05T12:05:52.502Z,19.23
2023-03-05T12:10:56.459Z,21.65
2023-03-05T12:16:48.729Z,18.13
2023-03-05T12:21:53.535Z,19.55
2023-03-05T12:27:06.302Z,19.05
2023-03-05T12:32:31.797Z,20.80
2023-03-05T12:37:34.824Z,19.70
2023-03-05T12:42:37.758Z,24.92
2023-03-05T12:47:48.863Z,23.73
2023-03-05T12:52:51.812Z,18.20
2023-03-05T12:58:04.428Z,20.98
2023-03-05T13:08:16.366Z,25.52
2023-03-05T13:13:21.473Z,22.88
2023-03-05T13:18:28.161Z,22.00
2023-03-05T13:23:32.777Z,23.08
2023-03-05T13:28:37.791Z,21.60
2023-03-05T13:33:41.526Z,23.33
2023-03-05T13:38:46.795Z,19.58
2023-03-05T13:43:51.465Z,28.58
2023-03-05T13:48:55.202Z,19.33
2023-03-05T13:53:58.240Z,26.35
2023-03-05T13:59:01.448Z,25.00
2023-03-05T14:04:08.749Z,27.00
2023-03-05T14:09:21.961Z,21.20
2023-03-05T14:14:26.585Z,22.80
2023-03-05T14:19:35.100Z,21.25
2023-03-05T14:24:38.200Z,21.42
2023-03-05T14:29:46.655Z,22.20
2023-03-05T14:34:55.595Z,26.42
2023-03-05T14:40:21.376Z,22.70
2023-03-05T14:45:43.947Z,32.83
2023-03-05T14:50:53.673Z,26.70
2023-03-05T14:55:57.939Z,24.25
2023-03-05T15:01:00.911Z,24.08
2023-03-05T15:06:04.275Z,33.38
2023-03-05T15:11:07.192Z,24.02
2023-03-05T15:16:15.845Z,25.70
2023-03-05T15:21:18.978Z,22.55
2023-03-05T15:26:22.296Z,24.25
2023-03-05T15:31:25.417Z,23.27
2023-03-05T15:36:28.494Z,24.67
2023-03-05T15:41:31.471Z,23.65
2023-03-05T15:46:35.636Z,25.85
2023-03-05T15:51:39.050Z,27.45
2023-03-05T15:56:42.573Z,21.45
2023-03-05T16:01:50.155Z,24.83
2023-03-05T16:06:53.334Z,26.38
2023-03-05T16:11:56.816Z,29.60
2023-03-05T16:17:03.655Z,27.17
2023-03-05T16:22:06.584Z,25.27
2023-03-05T16:27:09.603Z,26.20
2023-03-05T16:32:12.636Z,27.38
2023-03-05T16:37:20.796Z,29.05
2023-03-05T16:42:23.734Z,25.13
2023-03-05T16:47:26.731Z,23.73
2023-03-05T16:52:30.649Z,28.50
2023-03-05T16:57:33.606Z,22.58
2023-03-05T17:02:36.865Z,26.80
2023-03-05T17:07:39.854Z,35.00
2023-03-05T17:12:43.965Z,31.92
2023-03-05T17:17:47.014Z,29.23
2023-03-05T17:22:49.980Z,47.30
2023-03-05T17:27:52.989Z,36.33
2023-03-05T17:32:56.053Z,38.63
2023-03-05T17:37:59.286Z,47.10
2023-03-05T17:43:03.260Z,37.13
2023-03-05T17:48:06.588Z,34.35
2023-03-05T17:53:09.965Z,29.38
2023-03-05T17:58:13.040Z,36.30
2023-03-05T18:03:16.149Z,43.42
2023-03-05T18:08:19.280Z,34.15
2023-03-05T18:13:22.226Z,39.17
2023-03-05T18:18:25.227Z,37.88
2023-03-05T18:23:28.236Z,35.75
2023-03-05T18:28:33.791Z,37.40
2023-03-05T18:33:39.034Z,30.95
2023-03-05T18:38:42.046Z,37.00
2023-03-05T18:43:45.103Z,32.35
2023-03-05T18:48:48.499Z,24.70
2023-03-05T18:53:52.215Z,30.13
2023-03-05T18:58:56.178Z,36.58
2023-03-05T19:04:00.743Z,27.58
2023-03-05T19:09:10.150Z,28.20
2023-03-05T19:14:13.154Z,34.58
2023-03-05T19:19:20.606Z,30.65
2023-03-05T19:24:25.190Z,37.35
2023-03-05T19:29:33.269Z,26.38
2023-03-05T19:34:37.085Z,40.92
2023-03-05T19:39:40.020Z,28.90
2023-03-05T19:44:43.047Z,24.15
2023-03-05T19:49:45.999Z,19.48
2023-03-05T19:54:48.992Z,25.13
2023-03-05T19:59:53.589Z,24.13
2023-03-05T20:04:57.786Z,22.40
2023-03-05T20:10:01.122Z,25.52
2023-03-05T20:15:06.128Z,27.08
2023-03-05T20:20:09.987Z,19.83
2023-03-05T20:25:16.610Z,19.50
2023-03-05T20:30:19.805Z,24.75
2023-03-05T20:35:23.040Z,19.98
2023-03-05T20:40:26.901Z,22.23
2023-03-05T20:45:29.869Z,25.65
2023-03-05T20:50:34.135Z,25.80
2023-03-05T20:55:37.288Z,23.02
2023-03-05T21:00:41.588Z,24.65
2023-03-05T21:05:44.700Z,28.95
2023-03-05T21:10:47.654Z,23.30
2023-03-05T21:15:50.634Z,27.27
2023-03-05T21:20:53.542Z,33.13
2023-03-05T21:25:56.601Z,26.50
2023-03-05T21:31:07.368Z,30.67
2023-03-05T21:36:10.885Z,27.35
2023-03-05T21:41:14.434Z,32.70
2023-03-05T21:46:17.521Z,27.50
2023-03-05T21:51:22.931Z,26.65
2023-03-05T21:56:26.637Z,29.80
2023-03-05T22:01:29.727Z,26.80
2023-03-05T22:06:32.664Z,28.45
2023-03-05T22:11:35.608Z,27.25
2023-03-05T22:16:38.748Z,28.13
2023-03-05T22:21:41.743Z,28.83
2023-03-05T22:26:44.826Z,26.02
2023-03-05T22:31:47.820Z,30.02
2023-03-05T22:36:50.767Z,25.50
2023-03-05T22:41:53.751Z,30.88
2023-03-05T22:46:56.816Z,28.05
2023-03-05T22:51:59.908Z,30.52
2023-03-05T22:57:02.852Z,26.65
2023-03-05T23:02:05.896Z,28.20
2023-03-05T23:07:08.849Z,27.70
2023-03-05T23:12:12.778Z,28.20
2023-03-05T23:17:15.821Z,33.90
2023-03-05T23:22:19.049Z,31.25
2023-03-05T23:27:22.090Z,28.05
2023-03-05T23:32:28.852Z,32.90
2023-03-05T23:37:31.949Z,28.70
2023-03-05T23:42:35.105Z,28.67
2023-03-05T23:47:38.438Z,31.63
2023-03-05T23:52:43.306Z,27.70
2023-03-05T23:57:46.844Z,32.15
